Time;durP1;ratioP1;P1;durP2;ratioP2;P2;SDS_P1;SDS_P2;PMS_P1;PMS_P2;Temp;Humidity;BMP_temperature;BMP_pressure;BME280_temperature;BME280_humidity;BME280_pressure;Samples;Min_cycle;Max_cycle;Signal;HPM_P1;HPM_P2
2023/05/20 00:00:34;;;;;;;18.52;8.63;;;10.10;99.90;;;;;;5072843;28;20824;-38
2023/05/20 00:03:00;;;;;;;15.10;8.63;;;10.10;99.90;;;;;;5073745;28;20044;-38
2023/05/20 00:05:25;;;;;;;19.63;9.23;;;10.00;99.90;;;;;;5074216;28;20032;-39
2023/05/20 00:07:51;;;;;;;19.90;8.65;;;10.00;99.90;;;;;;5073616;28;20050;-36
2023/05/20 00:10:17;;;;;;;16.10;8.05;;;10.00;99.90;;;;;;5066497;28;20131;-38
2023/05/20 00:12:43;;;;;;;19.77;8.20;;;10.00;99.90;;;;;;5072754;28;20490;-35
2023/05/20 00:15:10;;;;;;;15.63;8.45;;;10.00;99.90;;;;;;5074025;28;20131;-38
2023/05/20 00:17:36;;;;;;;17.23;8.68;;;10.00;99.90;;;;;;5072892;28;20499;-40
2023/05/20 00:20:04;;;;;;;16.02;8.73;;;10.00;99.90;;;;;;5073714;28;20108;-37
2023/05/20 00:22:29;;;;;;;18.90;9.65;;;9.90;99.90;;;;;;5072734;28;20047;-38
2023/05/20 00:24:55;;;;;;;17.02;9.25;;;10.00;99.90;;;;;;5073857;28;20040;-37
2023/05/20 00:27:21;;;;;;;17.60;8.13;;;9.90;99.90;;;;;;5073657;28;20048;-37
2023/05/20 00:29:46;;;;;;;19.17;8.77;;;9.90;99.90;;;;;;5074513;28;20074;-38
2023/05/20 00:32:13;;;;;;;21.23;9.57;;;9.90;99.90;;;;;;5073484;28;20051;-41
2023/05/20 00:34:38;;;;;;;13.43;8.23;;;9.90;99.90;;;;;;5074922;28;20206;-40
2023/05/20 00:37:04;;;;;;;18.45;8.40;;;9.80;99.90;;;;;;5069739;28;20036;-40
2023/05/20 00:39:30;;;;;;;16.30;8.75;;;9.90;99.90;;;;;;5074315;28;20454;-41
2023/05/20 00:41:59;;;;;;;12.02;8.45;;;9.90;99.90;;;;;;5073068;28;20308;-35
2023/05/20 00:44:25;;;;;;;17.25;8.75;;;9.80;99.90;;;;;;5094283;27;20404;-38
2023/05/20 00:46:52;;;;;;;19.70;8.95;;;9.80;99.90;;;;;;5073867;28;20040;-36
2023/05/20 00:49:18;;;;;;;21.63;9.52;;;9.80;99.90;;;;;;5074183;28;20052;-38
2023/05/20 00:51:45;;;;;;;20.20;9.40;;;9.80;99.90;;;;;;5072527;28;20279;-41
2023/05/20 00:54:11;;;;;;;16.67;8.77;;;9.70;99.90;;;;;;5072539;28;20487;-42
2023/05/20 00:56:36;;;;;;;13.32;8.45;;;9.70;99.90;;;;;;5073353;28;20740;-39
2023/05/20 00:59:03;;;;;;;18.05;8.93;;;9.70;99.90;;;;;;5073852;28;20054;-38
2023/05/20 01:01:28;;;;;;;14.15;8.40;;;9.60;99.90;;;;;;5072354;28;20044;-38
2023/05/20 01:03:54;;;;;;;16.33;9.07;;;9.60;99.90;;;;;;5073474;28;20073;-40
2023/05/20 01:06:20;;;;;;;19.13;8.77;;;9.60;99.90;;;;;;5073295;28;20044;-40
2023/05/20 01:08:45;;;;;;;19.55;8.15;;;9.60;99.90;;;;;;5070933;28;20052;-35
2023/05/20 01:11:18;;;;;;;20.35;9.18;;;9.50;99.90;;;;;;5066795;28;20119;-39
2023/05/20 01:13:53;;;;;;;19.25;9.38;;;9.50;99.90;;;;;;5073541;28;20463;-44
2023/05/20 01:16:22;;;;;;;20.33;8.57;;;9.50;99.90;;;;;;5073462;28;20909;-36
2023/05/20 01:18:48;;;;;;;19.00;8.38;;;9.40;99.90;;;;;;5072979;28;20081;-38
2023/05/20 01:21:16;;;;;;;14.70;8.85;;;9.40;99.90;;;;;;5072466;28;20051;-41
2023/05/20 01:23:41;;;;;;;14.27;8.82;;;9.40;99.90;;;;;;5073627;28;20076;-36
2023/05/20 01:26:12;;;;;;;13.52;8.07;;;9.30;99.90;;;;;;5073237;28;20044;-37
2023/05/20 01:28:38;;;;;;;15.93;8.98;;;9.30;99.90;;;;;;5071815;28;20549;-35
2023/05/20 01:31:09;;;;;;;16.38;9.30;;;9.20;99.90;;;;;;5072123;28;20146;-39
2023/05/20 01:33:38;;;;;;;15.93;8.43;;;9.20;99.90;;;;;;5074526;28;20036;-38
2023/05/20 01:36:05;;;;;;;19.13;9.63;;;9.20;99.90;;;;;;5071678;28;20056;-40
2023/05/20 01:38:31;;;;;;;14.90;8.43;;;9.10;99.90;;;;;;5097679;27;20063;-36
2023/05/20 01:40:58;;;;;;;16.60;8.95;;;9.10;99.90;;;;;;5074365;28;20678;-39
2023/05/20 01:43:25;;;;;;;17.20;9.18;;;9.10;99.90;;;;;;5066319;28;20052;-40
2023/05/20 01:45:51;;;;;;;19.30;10.02;;;9.00;99.90;;;;;;5074118;28;20532;-39
2023/05/20 01:48:17;;;;;;;16.17;8.57;;;9.00;99.90;;;;;;5076486;28;20048;-38
2023/05/20 01:50:42;;;;;;;16.77;8.85;;;9.00;99.90;;;;;;5075403;28;20055;-37
2023/05/20 01:53:08;;;;;;;14.43;8.68;;;9.00;99.90;;;;;;5075559;28;20112;-40
2023/05/20 01:55:34;;;;;;;12.63;8.55;;;9.00;99.90;;;;;;5077086;28;20040;-40
2023/05/20 01:58:01;;;;;;;15.82;9.40;;;8.90;99.90;;;;;;5076510;28;20044;-38
2023/05/20 02:00:26;;;;;;;16.98;9.65;;;8.90;99.90;;;;;;5075879;28;20452;-37
2023/05/20 02:02:52;;;;;;;17.63;9.32;;;8.90;99.90;;;;;;5076125;28;20480;-36
2023/05/20 02:05:18;;;;;;;17.75;10.15;;;8.80;99.90;;;;;;5076502;28;20051;-39
2023/05/20 02:07:43;;;;;;;18.02;9.50;;;8.80;99.90;;;;;;5076595;28;20055;-46
2023/05/20 02:10:09;;;;;;;17.17;8.80;;;8.80;99.90;;;;;;5067222;28;20052;-41
2023/05/20 02:12:35;;;;;;;17.73;8.50;;;8.80;99.90;;;;;;5075840;28;20110;-38
2023/05/20 02:15:01;;;;;;;17.55;9.20;;;8.80;99.90;;;;;;5075901;28;20406;-36
2023/05/20 02:17:26;;;;;;;16.17;8.88;;;8.80;99.90;;;;;;5076635;28;20322;-40
2023/05/20 02:19:52;;;;;;;16.27;8.95;;;8.80;99.90;;;;;;5075588;28;20040;-41
2023/05/20 02:22:18;;;;;;;15.40;8.25;;;8.80;99.90;;;;;;5075070;28;20441;-38
2023/05/20 02:24:43;;;;;;;18.92;9.23;;;8.70;99.90;;;;;;5074330;28;20646;-36
2023/05/20 02:27:09;;;;;;;14.02;8.38;;;8.70;99.90;;;;;;5075343;28;20362;-40
2023/05/20 02:29:35;;;;;;;23.63;8.45;;;8.70;99.90;;;;;;5074683;28;20543;-40
2023/05/20 02:32:01;;;;;;;13.85;7.70;;;8.70;99.90;;;;;;5074753;28;20530;-35
2023/05/20 02:34:28;;;;;;;12.82;8.10;;;8.80;99.90;;;;;;5075577;28;20050;-37
2023/05/20 02:36:55;;;;;;;16.42;8.98;;;8.80;99.90;;;;;;5071349;28;20078;-39
2023/05/20 02:39:21;;;;;;;13.25;8.80;;;8.80;99.90;;;;;;5075747;28;20209;-38
2023/05/20 02:41:47;;;;;;;13.75;8.70;;;8.80;99.90;;;;;;5074554;28;20429;-35
2023/05/20 02:44:12;;;;;;;14.48;8.50;;;8.80;99.90;;;;;;5063103;28;20047;-38
2023/05/20 02:46:38;;;;;;;12.50;8.35;;;8.80;99.90;;;;;;5074051;28;20496;-37
2023/05/20 02:49:04;;;;;;;13.00;8.93;;;8.80;99.90;;;;;;5075104;28;20926;-37
2023/05/20 02:51:32;;;;;;;16.65;8.85;;;8.70;99.90;;;;;;5055989;28;20105;-38
2023/05/20 02:53:57;;;;;;;16.45;9.18;;;8.80;99.90;;;;;;5074984;28;20162;-39
2023/05/20 02:56:23;;;;;;;13.02;9.00;;;8.80;99.90;;;;;;5075221;28;20785;-38
2023/05/20 02:58:49;;;;;;;15.20;10.02;;;8.70;99.90;;;;;;5073464;28;20032;-37
2023/05/20 03:01:15;;;;;;;15.40;9.27;;;8.70;99.90;;;;;;5074402;28;20040;-40
2023/05/20 03:03:41;;;;;;;13.20;8.75;;;8.70;99.90;;;;;;5075675;28;20511;-35
2023/05/20 03:06:07;;;;;;;12.73;8.68;;;8.70;99.90;;;;;;5075950;28;20068;-42
2023/05/20 03:08:35;;;;;;;16.20;9.10;;;8.70;99.90;;;;;;5075052;28;20127;-41
2023/05/20 03:11:00;;;;;;;13.35;8.07;;;8.70;99.90;;;;;;5066795;28;20074;-36
2023/05/20 03:13:26;;;;;;;18.35;9.60;;;8.70;99.90;;;;;;5074984;28;20044;-35
2023/05/20 03:15:52;;;;;;;15.88;9.32;;;8.70;99.90;;;;;;5074988;28;20392;-35
2023/05/20 03:18:18;;;;;;;13.50;9.85;;;8.70;99.90;;;;;;5074755;28;20101;-37
2023/05/20 03:20:44;;;;;;;13.73;8.43;;;8.70;99.90;;;;;;5073186;28;20043;-40
2023/05/20 03:23:10;;;;;;;14.80;9.32;;;8.70;99.90;;;;;;5075541;28;20679;-37
2023/05/20 03:25:37;;;;;;;12.60;8.43;;;8.70;99.90;;;;;;5073852;28;20066;-37
2023/05/20 03:28:03;;;;;;;13.52;9.50;;;8.70;99.90;;;;;;5074581;28;20051;-39
2023/05/20 03:30:28;;;;;;;14.23;8.50;;;8.70;99.90;;;;;;5074158;28;20556;-40
2023/05/20 03:32:56;;;;;;;17.45;9.85;;;8.70;99.90;;;;;;5074843;28;20073;-42
2023/05/20 03:35:22;;;;;;;14.13;8.80;;;8.70;99.90;;;;;;5074428;28;20043;-36
2023/05/20 03:37:48;;;;;;;13.70;9.40;;;8.70;99.90;;;;;;5069376;28;20040;-39
2023/05/20 03:40:13;;;;;;;13.80;8.50;;;8.70;99.90;;;;;;5074162;28;20502;-40
2023/05/20 03:42:39;;;;;;;13.55;8.20;;;8.70;99.90;;;;;;5067956;28;20048;-38
2023/05/20 03:45:05;;;;;;;12.52;8.82;;;8.80;99.90;;;;;;5068004;28;20503;-38
2023/05/20 03:47:31;;;;;;;16.20;9.07;;;8.80;99.90;;;;;;5074902;28;20044;-38
2023/05/20 03:49:57;;;;;;;13.40;7.70;;;8.80;99.90;;;;;;5075061;28;20112;-40
2023/05/20 03:52:23;;;;;;;15.15;8.57;;;8.80;99.90;;;;;;5073844;28;20066;-37
2023/05/20 03:54:48;;;;;;;14.18;8.73;;;8.80;99.90;;;;;;5073020;28;20059;-37
2023/05/20 03:57:14;;;;;;;11.20;7.88;;;8.90;99.90;;;;;;5074615;28;20494;-40
2023/05/20 03:59:40;;;;;;;18.13;7.88;;;8.90;99.90;;;;;;5075083;28;20054;-40
2023/05/20 04:02:06;;;;;;;13.50;7.40;;;8.90;99.90;;;;;;5073147;28;20566;-38
2023/05/20 04:04:32;;;;;;;10.48;7.55;;;9.00;99.90;;;;;;5075023;28;20066;-37
2023/05/20 04:07:02;;;;;;;15.98;8.40;;;9.10;99.90;;;;;;5074375;28;20051;-36
2023/05/20 04:09:27;;;;;;;11.40;7.20;;;9.10;99.90;;;;;;5066268;28;20077;-39
2023/05/20 04:11:53;;;;;;;12.38;7.25;;;9.10;99.90;;;;;;5073717;28;20036;-34
2023/05/20 04:14:19;;;;;;;10.40;7.32;;;9.20;99.90;;;;;;5072440;28;20056;-34
2023/05/20 04:16:44;;;;;;;12.75;7.90;;;9.20;99.90;;;;;;5074529;28;20234;-36
2023/05/20 04:19:11;;;;;;;10.20;7.50;;;9.20;99.90;;;;;;5073001;28;20062;-38
2023/05/20 04:21:37;;;;;;;9.07;6.80;;;9.30;99.90;;;;;;5073296;28;20151;-40
2023/05/20 04:24:03;;;;;;;10.32;7.45;;;9.40;99.90;;;;;;5073976;28;20044;-35
2023/05/20 04:26:28;;;;;;;14.07;7.55;;;9.40;99.90;;;;;;5073973;28;20515;-34
2023/05/20 04:28:57;;;;;;;12.68;7.60;;;9.50;99.90;;;;;;5073918;28;20041;-40
2023/05/20 04:31:27;;;;;;;9.07;6.43;;;9.60;99.90;;;;;;5071934;28;20593;-39
2023/05/20 04:33:53;;;;;;;12.38;7.00;;;9.80;99.90;;;;;;5074132;28;20571;-38
2023/05/20 04:36:19;;;;;;;12.40;7.10;;;9.90;99.90;;;;;;5069836;28;20036;-35
2023/05/20 04:38:46;;;;;;;13.52;7.65;;;10.00;99.90;;;;;;5073575;28;20651;-37
2023/05/20 04:41:11;;;;;;;10.10;6.53;;;10.10;99.90;;;;;;5072702;28;20046;-37
2023/05/20 04:43:38;;;;;;;9.25;6.13;;;10.20;99.90;;;;;;5093089;27;20045;-38
2023/05/20 04:46:04;;;;;;;11.98;6.93;;;10.20;99.90;;;;;;5074219;28;20058;-39
2023/05/20 04:48:31;;;;;;;10.45;6.35;;;10.20;99.90;;;;;;5072542;28;20139;-39
2023/05/20 04:50:57;;;;;;;17.38;7.10;;;10.30;99.90;;;;;;5072493;28;20521;-35
2023/05/20 04:53:23;;;;;;;11.23;7.00;;;10.30;99.90;;;;;;5072686;28;20467;-35
2023/05/20 04:55:52;;;;;;;10.30;6.30;;;10.30;99.90;;;;;;5073772;28;20391;-39
2023/05/20 04:58:18;;;;;;;10.40;6.60;;;10.30;99.90;;;;;;5072877;28;20131;-38
2023/05/20 05:00:44;;;;;;;9.80;6.88;;;10.20;99.90;;;;;;5072652;28;20553;-40
2023/05/20 05:03:11;;;;;;;10.30;6.45;;;10.20;99.90;;;;;;5073679;28;20056;-39
2023/05/20 05:05:38;;;;;;;9.48;6.47;;;10.20;99.90;;;;;;5073861;28;20396;-39
2023/05/20 05:08:04;;;;;;;7.22;5.45;;;10.20;99.90;;;;;;5076625;28;20474;-39
2023/05/20 05:10:31;;;;;;;10.25;6.65;;;10.20;99.90;;;;;;5069056;28;20468;-39
2023/05/20 05:12:57;;;;;;;12.63;6.45;;;10.20;99.90;;;;;;5077663;28;20495;-37
2023/05/20 05:15:23;;;;;;;8.90;6.40;;;10.20;99.90;;;;;;5078220;28;20379;-35
2023/05/20 05:17:49;;;;;;;10.70;5.65;;;10.30;99.90;;;;;;5077398;28;20491;-36
2023/05/20 05:20:14;;;;;;;9.07;5.95;;;10.40;99.90;;;;;;5076250;28;20481;-39
2023/05/20 05:22:40;;;;;;;10.77;6.05;;;10.40;99.90;;;;;;5077960;28;20502;-38
2023/05/20 05:25:07;;;;;;;8.93;6.05;;;10.50;99.90;;;;;;5077912;28;20044;-36
2023/05/20 05:27:33;;;;;;;7.55;5.78;;;10.60;99.90;;;;;;5076291;28;20060;-35
2023/05/20 05:29:59;;;;;;;7.70;5.30;;;10.60;99.90;;;;;;5077423;28;20578;-40
2023/05/20 05:32:25;;;;;;;9.48;5.88;;;10.70;99.90;;;;;;5077096;28;20044;-45
2023/05/20 05:34:50;;;;;;;8.32;5.10;;;10.70;99.90;;;;;;5077844;28;20421;-36
2023/05/20 05:37:16;;;;;;;9.32;5.85;;;10.80;99.90;;;;;;5072672;28;20148;-36
2023/05/20 05:39:42;;;;;;;7.93;5.30;;;10.90;99.90;;;;;;5077737;28;20461;-41
2023/05/20 05:42:07;;;;;;;8.40;5.43;;;11.00;99.90;;;;;;5073958;28;20044;-38
2023/05/20 05:44:33;;;;;;;7.45;4.82;;;11.20;99.90;;;;;;5064026;28;20298;-35
2023/05/20 05:46:59;;;;;;;10.93;5.50;;;11.40;99.90;;;;;;5076428;28;20059;-37
2023/05/20 05:49:25;;;;;;;10.45;6.10;;;11.70;99.90;;;;;;5075302;28;20574;-38
2023/05/20 05:51:50;;;;;;;6.57;4.35;;;12.40;99.90;;;;;;5075576;28;20147;-40
2023/05/20 05:54:16;;;;;;;7.45;4.15;;;13.10;99.90;;;;;;5076273;28;20430;-37
2023/05/20 05:56:42;;;;;;;8.40;4.03;;;14.90;99.90;;;;;;5076478;28;20479;-38
2023/05/20 05:59:07;;;;;;;6.85;3.17;;;16.90;99.90;;;;;;5076094;28;20051;-41
2023/05/20 06:01:33;;;;;;;6.15;3.33;;;18.30;99.90;;;;;;5073891;28;20335;-38
2023/05/20 06:03:59;;;;;;;4.38;2.70;;;19.70;99.90;;;;;;5074642;28;20059;-39
2023/05/20 06:06:25;;;;;;;6.07;3.60;;;20.60;99.90;;;;;;5076657;28;20411;-38
2023/05/20 06:08:51;;;;;;;5.60;2.78;;;19.80;99.90;;;;;;5072041;28;20129;-37
2023/05/20 06:11:16;;;;;;;4.65;2.83;;;18.60;99.90;;;;;;5069817;28;20497;-35
2023/05/20 06:13:42;;;;;;;6.10;3.35;;;17.60;99.90;;;;;;5076762;28;20051;-39
2023/05/20 06:16:08;;;;;;;7.07;3.30;;;16.70;99.90;;;;;;5076120;28;20048;-38
2023/05/20 06:18:33;;;;;;;6.97;3.00;;;15.90;99.90;;;;;;5106040;27;20032;-40
2023/05/20 06:20:59;;;;;;;5.00;3.05;;;15.40;99.90;;;;;;5066255;28;20074;-38
2023/05/20 06:23:25;;;;;;;6.40;3.45;;;15.00;99.90;;;;;;5067757;28;20063;-37
2023/05/20 06:25:51;;;;;;;4.90;3.38;;;14.80;99.90;;;;;;5071326;28;20556;-40
2023/05/20 06:28:17;;;;;;;4.55;3.35;;;14.50;99.90;;;;;;5074633;28;20028;-38
2023/05/20 06:30:43;;;;;;;5.40;3.00;;;14.40;99.90;;;;;;5073679;28;20032;-36
2023/05/20 06:33:08;;;;;;;7.35;3.25;;;14.50;99.90;;;;;;5073587;28;20093;-39
2023/05/20 06:35:34;;;;;;;6.25;3.00;;;15.20;99.90;;;;;;5072344;28;20803;-41
2023/05/20 06:38:00;;;;;;;6.75;2.72;;;16.10;99.90;;;;;;5071621;28;20411;-38
2023/05/20 06:40:27;;;;;;;5.05;3.00;;;16.60;99.90;;;;;;5074952;28;20072;-43
2023/05/20 06:42:52;;;;;;;3.67;2.88;;;17.30;99.90;;;;;;5071525;28;20488;-37
2023/05/20 06:45:18;;;;;;;5.53;2.25;;;18.30;99.90;;;;;;5073695;28;20685;-37
2023/05/20 06:47:44;;;;;;;4.40;2.35;;;19.20;99.90;;;;;;5075311;28;20369;-41
2023/05/20 06:50:10;;;;;;;3.78;2.25;;;20.10;99.90;;;;;;5072827;28;20074;-42
2023/05/20 06:52:36;;;;;;;4.53;2.13;;;21.10;99.90;;;;;;5075554;28;20424;-41
2023/05/20 06:55:03;;;;;;;26.17;2.90;;;22.10;99.90;;;;;;5074912;28;20044;-39
2023/05/20 06:57:29;;;;;;;5.65;2.45;;;23.30;99.50;;;;;;5073952;28;20066;-43
2023/05/20 06:59:55;;;;;;;3.80;2.17;;;24.00;98.60;;;;;;5075006;28;20508;-42
2023/05/20 07:02:21;;;;;;;6.97;2.50;;;24.80;98.20;;;;;;5075280;28;20042;-37
2023/05/20 07:04:47;;;;;;;5.07;2.83;;;25.40;95.90;;;;;;5075272;28;20397;-36
2023/05/20 07:07:13;;;;;;;15.32;2.90;;;25.50;96.10;;;;;;5076240;28;20055;-40
2023/05/20 07:09:39;;;;;;;3.28;2.40;;;25.50;95.60;;;;;;5067236;28;20045;-37
2023/05/20 07:12:05;;;;;;;5.20;2.40;;;25.20;95.20;;;;;;5069291;28;20037;-45
2023/05/20 07:14:31;;;;;;;6.25;2.83;;;24.60;96.40;;;;;;5069454;28;20048;-37
2023/05/20 07:16:57;;;;;;;4.47;2.40;;;24.00;96.90;;;;;;5070630;28;20514;-43
2023/05/20 07:19:22;;;;;;;3.92;2.20;;;23.40;96.00;;;;;;5065269;28;20052;-38
2023/05/20 07:21:48;;;;;;;4.38;2.40;;;23.20;96.50;;;;;;5069165;28;20442;-42
2023/05/20 07:24:15;;;;;;;6.45;2.50;;;22.50;97.90;;;;;;5070188;28;20078;-44
2023/05/20 07:26:41;;;;;;;5.63;2.55;;;22.40;97.70;;;;;;5063244;28;20130;-40
2023/05/20 07:29:08;;;;;;;4.93;2.38;;;22.50;98.30;;;;;;5069917;28;20056;-44
2023/05/20 07:31:34;;;;;;;6.60;2.58;;;22.40;98.10;;;;;;5072806;28;20404;-42
2023/05/20 07:34:00;;;;;;;4.55;2.13;;;22.10;97.40;;;;;;5074492;28;20040;-42
2023/05/20 07:36:29;;;;;;;5.00;2.33;;;22.00;97.00;;;;;;5070697;28;20047;-40
2023/05/20 07:38:54;;;;;;;3.75;2.05;;;21.70;97.70;;;;;;5075152;28;20169;-38
2023/05/20 07:41:21;;;;;;;4.78;2.40;;;21.40;97.30;;;;;;5073178;28;20040;-44
2023/05/20 07:43:47;;;;;;;3.72;2.10;;;21.50;98.20;;;;;;5062548;28;20472;-42
2023/05/20 07:46:12;;;;;;;19.08;2.95;;;21.20;97.80;;;;;;5074942;28;20070;-37
2023/05/20 07:48:38;;;;;;;5.38;2.40;;;20.90;98.40;;;;;;5074940;28;20048;-37
2023/05/20 07:51:04;;;;;;;6.45;1.95;;;20.90;98.30;;;;;;5074113;28;20075;-39
2023/05/20 07:53:29;;;;;;;4.72;1.77;;;21.10;98.40;;;;;;5074263;28;20473;-38
2023/05/20 07:55:55;;;;;;;3.40;2.17;;;20.90;97.90;;;;;;5074149;28;20490;-41
2023/05/20 07:58:21;;;;;;;5.13;2.38;;;20.90;98.50;;;;;;5075173;28;20376;-39
2023/05/20 08:00:47;;;;;;;3.40;2.30;;;20.70;98.40;;;;;;5073893;28;20151;-41
2023/05/20 08:03:13;;;;;;;5.65;2.33;;;20.70;98.60;;;;;;5075253;28;20495;-38
2023/05/20 08:05:40;;;;;;;4.97;2.65;;;20.80;98.40;;;;;;5074109;28;20071;-39
2023/05/20 08:08:06;;;;;;;4.60;2.38;;;20.70;98.10;;;;;;5074639;28;20040;-40
2023/05/20 08:10:32;;;;;;;15.23;3.35;;;20.50;98.50;;;;;;5065197;28;20330;-37
2023/05/20 08:12:57;;;;;;;6.85;2.90;;;20.40;99.70;;;;;;5072603;28;20055;-42
2023/05/20 08:15:23;;;;;;;6.90;2.80;;;20.30;99.50;;;;;;5056232;28;20488;-36
2023/05/20 08:17:49;;;;;;;5.43;2.35;;;20.30;99.60;;;;;;5072571;28;20537;-42
2023/05/20 08:20:15;;;;;;;12.80;2.83;;;20.10;99.70;;;;;;5072831;28;20048;-42
2023/05/20 08:22:41;;;;;;;3.47;2.50;;;20.30;99.50;;;;;;5073998;28;20101;-40
2023/05/20 08:25:07;;;;;;;4.72;2.42;;;20.20;99.10;;;;;;5073558;28;20241;-41
2023/05/20 08:27:35;;;;;;;7.10;2.60;;;20.20;98.60;;;;;;5074349;28;20628;-38
2023/05/20 08:30:01;;;;;;;11.02;3.08;;;20.20;98.80;;;;;;5071477;28;20059;-42
2023/05/20 08:32:26;;;;;;;7.72;2.50;;;20.20;99.20;;;;;;5073729;28;20043;-41
2023/05/20 08:34:52;;;;;;;24.73;3.05;;;20.20;99.00;;;;;;5073429;28;20036;-44
2023/05/20 08:37:18;;;;;;;31.30;3.95;;;20.10;99.10;;;;;;5068146;28;20044;-41
2023/05/20 08:39:45;;;;;;;11.77;2.70;;;20.20;98.80;;;;;;5073754;28;20388;-37
2023/05/20 08:42:12;;;;;;;3.38;1.90;;;20.20;98.60;;;;;;5071728;28;20051;-40
2023/05/20 08:44:40;;;;;;;4.07;2.10;;;20.10;97.90;;;;;;5060731;28;20549;-38
2023/05/20 08:47:07;;;;;;;5.55;2.00;;;20.10;98.70;;;;;;5073204;28;20048;-39
2023/05/20 08:49:33;;;;;;;4.43;2.00;;;19.90;98.80;;;;;;5073814;28;20036;-40
2023/05/20 08:52:00;;;;;;;3.00;1.85;;;19.90;99.20;;;;;;5072729;28;20558;-41
2023/05/20 08:54:33;;;;;;;6.03;1.95;;;19.90;98.40;;;;;;5074388;28;20044;-40
2023/05/20 08:56:59;;;;;;;;;;;19.90;98.50;;;;;;5074330;28;20102;-43
2023/05/20 08:59:26;;;;;;;4.53;2.17;;;19.70;98.70;;;;;;5074448;28;19942;-42
2023/05/20 09:01:51;;;;;;;3.67;2.22;;;19.90;99.50;;;;;;5072659;28;20062;-41
2023/05/20 09:04:17;;;;;;;7.93;2.47;;;19.80;98.80;;;;;;5072893;28;20044;-44
2023/05/20 09:06:44;;;;;;;8.25;2.67;;;20.00;98.90;;;;;;5074391;28;20130;-41
2023/05/20 09:09:14;;;;;;;6.35;2.80;;;20.00;99.80;;;;;;5066800;28;20111;-42
2023/05/20 09:11:41;;;;;;;6.45;2.85;;;20.00;99.80;;;;;;5071096;28;20044;-40
2023/05/20 09:14:07;;;;;;;5.53;2.25;;;20.20;99.30;;;;;;5073303;28;20064;-42
2023/05/20 09:16:33;;;;;;;7.53;2.40;;;20.20;98.80;;;;;;5071369;28;20487;-40
2023/05/20 09:18:59;;;;;;;4.65;2.63;;;20.20;99.50;;;;;;5072844;28;20380;-40
2023/05/20 09:21:28;;;;;;;4.22;2.22;;;20.20;98.50;;;;;;5072469;28;20051;-40
2023/05/20 09:23:56;;;;;;;5.50;2.53;;;20.30;98.80;;;;;;5073751;28;20076;-39
2023/05/20 09:26:23;;;;;;;4.78;2.58;;;20.30;97.90;;;;;;5072001;28;20577;-36
2023/05/20 09:28:50;;;;;;;9.80;2.83;;;20.20;99.20;;;;;;5073492;28;20437;-41
2023/05/20 09:31:16;;;;;;;5.80;2.38;;;20.20;99.30;;;;;;5071966;28;20088;-40
2023/05/20 09:33:42;;;;;;;3.72;2.65;;;20.30;99.60;;;;;;5073401;28;20191;-37
2023/05/20 09:36:09;;;;;;;7.38;2.60;;;20.30;99.10;;;;;;5068102;28;20040;-39
2023/05/20 09:38:39;;;;;;;3.80;2.50;;;20.20;98.60;;;;;;5093065;27;20067;-43
2023/05/20 09:41:10;;;;;;;7.07;2.38;;;20.20;98.80;;;;;;5071717;28;20060;-40
2023/05/20 09:43:38;;;;;;;20.58;3.58;;;20.10;98.60;;;;;;5060700;28;20056;-42
2023/05/20 09:46:04;;;;;;;6.25;3.30;;;19.90;99.40;;;;;;5071515;28;20059;-43
2023/05/20 09:48:30;;;;;;;5.97;2.50;;;20.00;99.50;;;;;;5073162;28;20391;-38
2023/05/20 09:50:57;;;;;;;4.35;2.97;;;20.10;99.80;;;;;;5071890;28;20040;-41
2023/05/20 09:53:27;;;;;;;5.93;2.88;;;20.30;99.20;;;;;;5073789;28;20395;-39
2023/05/20 09:55:53;;;;;;;5.22;2.92;;;20.40;99.20;;;;;;5076554;28;20526;-38
2023/05/20 09:58:20;;;;;;;7.03;2.90;;;20.40;99.70;;;;;;5075488;28;20044;-40
2023/05/20 10:00:45;;;;;;;4.30;2.78;;;20.40;98.50;;;;;;5076568;28;20505;-40
2023/05/20 10:03:12;;;;;;;4.88;2.53;;;20.20;98.30;;;;;;5077648;28;20057;-37
2023/05/20 10:05:44;;;;;;;4.28;2.60;;;20.00;97.60;;;;;;5077261;28;20044;-37
2023/05/20 10:08:12;;;;;;;10.02;2.95;;;19.80;99.00;;;;;;5077171;28;20044;-41
2023/05/20 10:10:56;;;;;;;5.80;2.53;;;19.80;98.90;;;;;;5067722;28;20040;-37
2023/05/20 10:13:25;;;;;;;4.32;2.67;;;19.90;98.40;;;;;;5076542;28;20036;-39
2023/05/20 10:15:57;;;;;;;2.80;2.53;;;19.80;98.50;;;;;;5074429;28;20060;-42
2023/05/20 10:18:22;;;;;;;4.30;2.92;;;19.90;98.80;;;;;;5062528;28;20048;-37
2023/05/20 10:20:49;;;;;;;4.43;2.40;;;20.00;99.00;;;;;;5075407;28;20043;-39
2023/05/20 10:23:28;;;;;;;10.38;3.00;;;20.10;98.00;;;;;;5076729;28;20510;-41
2023/05/20 10:25:55;;;;;;;15.02;3.80;;;20.00;98.00;;;;;;5076047;28;20035;-45
2023/05/20 10:28:29;;;;;;;7.95;3.28;;;19.90;98.50;;;;;;5075400;28;20051;-40
2023/05/20 10:30:56;;;;;;;6.13;2.80;;;19.90;98.40;;;;;;5075231;28;20052;-44
2023/05/20 10:33:21;;;;;;;7.68;3.10;;;19.90;98.30;;;;;;5076583;28;20048;-39
2023/05/20 10:35:50;;;;;;;6.88;2.97;;;20.00;98.00;;;;;;5072006;28;20034;-36
2023/05/20 10:38:17;;;;;;;5.40;3.15;;;20.00;97.80;;;;;;5076045;28;20044;-37
2023/05/20 10:40:42;;;;;;;4.35;2.95;;;19.80;97.80;;;;;;5094656;27;20043;-37
2023/05/20 10:43:12;;;;;;;5.90;2.70;;;19.80;98.20;;;;;;5067200;28;20551;-40
2023/05/20 10:46:16;;;;;;;7.90;2.90;;;20.00;98.20;;;;;;5073577;28;20044;-40
2023/05/20 10:48:42;;;;;;;2.75;2.30;;;19.60;97.70;;;;;;5032935;28;20056;-36
2023/05/20 10:51:13;;;;;;;4.45;2.50;;;19.30;97.90;;;;;;5032027;28;20069;-41
2023/05/20 10:53:41;;;;;;;12.82;3.38;;;19.30;98.50;;;;;;5003367;28;20175;-42
2023/05/20 10:56:17;;;;;;;4.10;2.72;;;19.40;98.40;;;;;;5032493;28;20528;-41
2023/05/20 10:58:43;;;;;;;6.65;2.95;;;19.60;98.90;;;;;;5016269;28;20110;-36
2023/05/20 11:01:09;;;;;;;5.47;3.20;;;19.70;98.90;;;;;;5015853;28;20129;-40
2023/05/20 11:03:36;;;;;;;6.65;2.67;;;19.60;98.30;;;;;;5033506;28;20048;-43
2023/05/20 11:06:09;;;;;;;3.35;2.42;;;19.80;98.30;;;;;;5028382;28;20540;-39
2023/05/20 11:08:35;;;;;;;17.27;3.28;;;19.90;97.40;;;;;;5012889;28;20045;-42
2023/05/20 11:11:01;;;;;;;4.63;2.33;;;20.10;97.70;;;;;;5011538;28;20650;-44
2023/05/20 11:13:26;;;;;;;7.13;3.17;;;20.10;97.30;;;;;;5013053;28;20045;-40
2023/05/20 11:15:53;;;;;;;9.02;2.92;;;19.90;97.10;;;;;;4995738;28;20045;-37
2023/05/20 11:18:18;;;;;;;4.65;2.92;;;20.00;97.70;;;;;;4999392;28;20049;-39
2023/05/20 11:20:45;;;;;;;6.32;2.85;;;20.20;98.10;;;;;;5010533;28;20056;-40
2023/05/20 11:23:12;;;;;;;8.25;2.75;;;20.30;97.80;;;;;;4997294;28;20050;-44
2023/05/20 11:25:38;;;;;;;4.63;2.53;;;20.40;98.20;;;;;;5069583;28;20047;-39
2023/05/20 11:28:07;;;;;;;6.88;2.90;;;20.50;98.00;;;;;;5076110;28;20531;-42
2023/05/20 11:30:32;;;;;;;8.48;3.13;;;20.50;97.10;;;;;;5074766;28;20036;-36
2023/05/20 11:33:04;;;;;;;6.10;2.58;;;20.20;96.00;;;;;;5074166;28;20433;-36
2023/05/20 11:35:32;;;;;;;3.03;2.13;;;20.10;96.50;;;;;;5072781;28;20037;-41
2023/05/20 11:38:03;;;;;;;4.35;2.53;;;20.00;97.00;;;;;;5071736;28;20623;-39
2023/05/20 11:40:30;;;;;;;4.90;3.15;;;20.20;98.00;;;;;;5073847;28;20545;-37
2023/05/20 11:42:57;;;;;;;5.15;3.10;;;19.90;96.20;;;;;;5067694;28;20050;-40
2023/05/20 11:45:23;;;;;;;6.55;3.40;;;19.70;96.80;;;;;;5070116;28;20087;-38
2023/05/20 11:48:02;;;;;;;5.45;2.92;;;19.60;96.90;;;;;;5098997;27;20048;-38
2023/05/20 11:50:35;;;;;;;5.40;2.83;;;19.40;97.90;;;;;;5070943;28;20375;-36
2023/05/20 11:53:02;;;;;;;3.92;2.65;;;19.60;98.50;;;;;;5074600;28;20490;-44
2023/05/20 11:55:30;;;;;;;9.65;3.17;;;19.90;98.90;;;;;;5073186;28;20414;-40
2023/05/20 11:57:57;;;;;;;5.97;3.97;;;20.10;98.00;;;;;;5074715;28;20044;-36
2023/05/20 12:00:23;;;;;;;8.05;3.03;;;20.20;98.00;;;;;;5073296;28;20487;-40
2023/05/20 12:02:49;;;;;;;39.00;4.85;;;20.20;98.10;;;;;;5074918;28;20063;-37
2023/05/20 12:05:15;;;;;;;5.40;2.88;;;20.30;98.00;;;;;;5074651;28;20044;-42
2023/05/20 12:07:41;;;;;;;8.27;3.25;;;20.20;97.50;;;;;;5072586;28;20048;-40
2023/05/20 12:10:07;;;;;;;7.38;2.80;;;20.20;98.20;;;;;;5064775;28;20086;-44
2023/05/20 12:12:35;;;;;;;4.57;2.88;;;20.20;97.80;;;;;;5074695;28;20062;-39
2023/05/20 12:15:01;;;;;;;6.10;2.70;;;20.40;97.90;;;;;;5073730;28;20645;-38
2023/05/20 12:17:27;;;;;;;7.50;3.45;;;20.60;97.90;;;;;;5073595;28;20560;-39
2023/05/20 12:19:53;;;;;;;5.20;2.85;;;20.50;97.70;;;;;;5071087;28;20048;-43
2023/05/20 12:22:18;;;;;;;4.18;2.97;;;20.40;97.10;;;;;;5072159;28;20048;-38
2023/05/20 12:24:44;;;;;;;7.55;3.10;;;20.00;96.90;;;;;;5074179;28;20040;-44
2023/05/20 12:27:09;;;;;;;6.75;3.63;;;19.90;98.10;;;;;;5074495;28;20165;-40
2023/05/20 12:29:35;;;;;;;9.18;3.67;;;20.00;99.90;;;;;;5073135;28;20115;-40
2023/05/20 12:32:01;;;;;;;10.02;3.70;;;20.20;99.90;;;;;;5074351;28;20074;-42
2023/05/20 12:34:27;;;;;;;6.82;3.15;;;20.40;99.90;;;;;;5074012;28;20047;-42
2023/05/20 12:36:53;;;;;;;7.38;3.95;;;20.40;99.90;;;;;;5067742;28;20063;-38
2023/05/20 12:39:18;;;;;;;42.55;5.88;;;20.30;99.90;;;;;;5072981;28;20044;-40
2023/05/20 12:41:44;;;;;;;38.70;5.22;;;20.10;99.90;;;;;;5073959;28;20535;-44